sensor_id;sensor_type;location;lat;lon;timestamp;temperature;humidity
7204;DHT22;3643;52.460;13.322;2023-09-19T00:01:09;17.40;99.90
7204;DHT22;3643;52.460;13.322;2023-09-19T00:03:40;17.30;99.90
7204;DHT22;3643;52.460;13.322;2023-09-19T00:06:10;17.30;99.90
7204;DHT22;3643;52.460;13.322;2023-09-19T00:08:40;17.30;99.90
7204;DHT22;3643;52.460;13.322;2023-09-19T00:11:11;17.30;99.90
7204;DHT22;3643;52.460;13.322;2023-09-19T00:13:39;17.30;99.90
7204;DHT22;3643;52.460;13.322;2023-09-19T00:16:09;17.30;99.90
7204;DHT22;3643;52.460;13.322;2023-09-19T00:18:40;17.20;99.90
7204;DHT22;3643;52.460;13.322;2023-09-19T00:21:09;17.20;99.90
7204;DHT22;3643;52.460;13.322;2023-09-19T00:23:38;17.20;99.90
7204;DHT22;3643;52.460;13.322;2023-09-19T00:26:07;17.20;99.90
7204;DHT22;3643;52.460;13.322;2023-09-19T00:28:35;17.10;99.90
7204;DHT22;3643;52.460;13.322;2023-09-19T00:31:04;17.10;99.90
7204;DHT22;3643;52.460;13.322;2023-09-19T00:33:32;17.00;99.90
7204;DHT22;3643;52.460;13.322;2023-09-19T00:36:02;17.10;99.90
7204;DHT22;3643;52.460;13.322;2023-09-19T00:38:32;17.00;99.90
7204;DHT22;3643;52.460;13.322;2023-09-19T00:41:00;17.00;99.90
7204;DHT22;3643;52.460;13.322;2023-09-19T00:43:29;16.90;99.90
7204;DHT22;3643;52.460;13.322;2023-09-19T00:46:01;16.90;99.90
7204;DHT22;3643;52.460;13.322;2023-09-19T00:48:31;16.90;99.90
7204;DHT22;3643;52.460;13.322;2023-09-19T00:51:04;16.90;99.90
7204;DHT22;3643;52.460;13.322;2023-09-19T00:53:34;16.70;99.90
7204;DHT22;3643;52.460;13.322;2023-09-19T00:56:03;16.80;99.90
7204;DHT22;3643;52.460;13.322;2023-09-19T00:58:34;16.90;99.90
7204;DHT22;3643;52.460;13.322;2023-09-19T01:01:04;16.80;99.90
7204;DHT22;3643;52.460;13.322;2023-09-19T01:03:34;16.80;99.90
7204;DHT22;3643;52.460;13.322;2023-09-19T01:06:04;16.80;99.90
7204;DHT22;3643;52.460;13.322;2023-09-19T01:08:34;16.80;99.90
7204;DHT22;3643;52.460;13.322;2023-09-19T01:11:13;16.80;99.90
7204;DHT22;3643;52.460;13.322;2023-09-19T01:13:50;16.80;99.90
7204;DHT22;3643;52.460;13.322;2023-09-19T01:16:32;16.90;99.90
7204;DHT22;3643;52.460;13.322;2023-09-19T01:19:12;16.90;99.90
7204;DHT22;3643;52.460;13.322;2023-09-19T01:21:57;16.90;99.90
7204;DHT22;3643;52.460;13.322;2023-09-19T01:24:49;16.80;99.90
7204;DHT22;3643;52.460;13.322;2023-09-19T01:27:48;16.80;99.90
7204;DHT22;3643;52.460;13.322;2023-09-19T01:30:26;16.80;99.90
7204;DHT22;3643;52.460;13.322;2023-09-19T01:32:56;16.80;99.90
7204;DHT22;3643;52.460;13.322;2023-09-19T01:35:26;16.80;99.90
7204;DHT22;3643;52.460;13.322;2023-09-19T01:37:54;16.90;99.90
7204;DHT22;3643;52.460;13.322;2023-09-19T01:40:23;16.90;99.90
7204;DHT22;3643;52.460;13.322;2023-09-19T01:42:56;16.90;99.90
7204;DHT22;3643;52.460;13.322;2023-09-19T01:45:46;16.90;99.90
7204;DHT22;3643;52.460;13.322;2023-09-19T01:48:22;16.90;99.90
7204;DHT22;3643;52.460;13.322;2023-09-19T01:50:59;17.00;99.90
7204;DHT22;3643;52.460;13.322;2023-09-19T01:53:35;17.00;99.90
7204;DHT22;3643;52.460;13.322;2023-09-19T01:56:08;17.00;99.90
7204;DHT22;3643;52.460;13.322;2023-09-19T01:58:42;16.90;99.90
7204;DHT22;3643;52.460;13.322;2023-09-19T02:01:19;16.90;99.90
7204;DHT22;3643;52.460;13.322;2023-09-19T02:03:48;16.80;99.90
7204;DHT22;3643;52.460;13.322;2023-09-19T02:06:19;16.70;99.90
7204;DHT22;3643;52.460;13.322;2023-09-19T02:08:49;16.60;99.90
7204;DHT22;3643;52.460;13.322;2023-09-19T02:11:17;16.60;99.90
7204;DHT22;3643;52.460;13.322;2023-09-19T02:13:46;16.50;99.90
7204;DHT22;3643;52.460;13.322;2023-09-19T02:16:18;16.40;99.90
7204;DHT22;3643;52.460;13.322;2023-09-19T02:18:48;16.50;99.90
7204;DHT22;3643;52.460;13.322;2023-09-19T02:21:17;16.40;99.90
7204;DHT22;3643;52.460;13.322;2023-09-19T02:23:49;16.40;99.90
7204;DHT22;3643;52.460;13.322;2023-09-19T02:26:18;16.40;99.90
7204;DHT22;3643;52.460;13.322;2023-09-19T02:28:47;16.30;99.90
7204;DHT22;3643;52.460;13.322;2023-09-19T02:31:16;16.30;99.90
7204;DHT22;3643;52.460;13.322;2023-09-19T02:33:46;16.30;99.90
7204;DHT22;3643;52.460;13.322;2023-09-19T02:36:14;16.30;99.90
7204;DHT22;3643;52.460;13.322;2023-09-19T02:38:44;16.30;99.90
7204;DHT22;3643;52.460;13.322;2023-09-19T02:41:13;16.30;99.90
7204;DHT22;3643;52.460;13.322;2023-09-19T02:43:41;16.30;99.90
7204;DHT22;3643;52.460;13.322;2023-09-19T02:46:10;16.30;99.90
7204;DHT22;3643;52.460;13.322;2023-09-19T02:48:40;16.30;99.90
7204;DHT22;3643;52.460;13.322;2023-09-19T02:51:10;16.30;99.90
7204;DHT22;3643;52.460;13.322;2023-09-19T02:53:39;16.30;99.90
7204;DHT22;3643;52.460;13.322;2023-09-19T02:56:09;16.30;99.90
7204;DHT22;3643;52.460;13.322;2023-09-19T02:58:40;16.30;99.90
7204;DHT22;3643;52.460;13.322;2023-09-19T03:01:09;16.30;99.90
7204;DHT22;3643;52.460;13.322;2023-09-19T03:03:39;16.30;99.90
7204;DHT22;3643;52.460;13.322;2023-09-19T03:06:09;16.20;99.90
7204;DHT22;3643;52.460;13.322;2023-09-19T03:08:40;16.20;99.90
7204;DHT22;3643;52.460;13.322;2023-09-19T03:11:09;16.20;99.90
7204;DHT22;3643;52.460;13.322;2023-09-19T03:13:39;16.20;99.90
7204;DHT22;3643;52.460;13.322;2023-09-19T03:16:09;16.20;99.90
7204;DHT22;3643;52.460;13.322;2023-09-19T03:18:38;15.70;99.90
7204;DHT22;3643;52.460;13.322;2023-09-19T03:21:06;16.20;99.90
7204;DHT22;3643;52.460;13.322;2023-09-19T03:23:36;16.10;99.90
7204;DHT22;3643;52.460;13.322;2023-09-19T03:26:06;16.10;99.90
7204;DHT22;3643;52.460;13.322;2023-09-19T03:28:35;16.10;99.90
7204;DHT22;3643;52.460;13.322;2023-09-19T03:31:05;16.20;99.90
7204;DHT22;3643;52.460;13.322;2023-09-19T03:33:34;16.10;99.90
7204;DHT22;3643;52.460;13.322;2023-09-19T03:36:03;16.10;99.90
7204;DHT22;3643;52.460;13.322;2023-09-19T03:38:33;16.10;99.90
7204;DHT22;3643;52.460;13.322;2023-09-19T03:41:03;16.10;99.90
7204;DHT22;3643;52.460;13.322;2023-09-19T03:43:32;16.10;99.90
7204;DHT22;3643;52.460;13.322;2023-09-19T03:46:01;16.10;99.90
7204;DHT22;3643;52.460;13.322;2023-09-19T03:48:31;16.10;99.90
7204;DHT22;3643;52.460;13.322;2023-09-19T03:51:00;16.10;99.90
7204;DHT22;3643;52.460;13.322;2023-09-19T03:53:29;16.10;99.90
7204;DHT22;3643;52.460;13.322;2023-09-19T03:55:57;16.10;99.90
7204;DHT22;3643;52.460;13.322;2023-09-19T03:58:28;16.20;99.90
7204;DHT22;3643;52.460;13.322;2023-09-19T04:00:57;16.10;99.90
7204;DHT22;3643;52.460;13.322;2023-09-19T04:03:25;16.20;99.90
7204;DHT22;3643;52.460;13.322;2023-09-19T04:06:02;16.20;99.90
7204;DHT22;3643;52.460;13.322;2023-09-19T04:08:30;16.20;99.90
7204;DHT22;3643;52.460;13.322;2023-09-19T04:10:58;16.30;99.90
7204;DHT22;3643;52.460;13.322;2023-09-19T04:13:28;16.30;99.90
7204;DHT22;3643;52.460;13.322;2023-09-19T04:15:56;16.30;99.90
7204;DHT22;3643;52.460;13.322;2023-09-19T04:18:24;16.20;99.90
7204;DHT22;3643;52.460;13.322;2023-09-19T04:20:53;16.10;99.90
7204;DHT22;3643;52.460;13.322;2023-09-19T04:23:22;16.10;99.90
7204;DHT22;3643;52.460;13.322;2023-09-19T04:25:50;16.10;99.90
7204;DHT22;3643;52.460;13.322;2023-09-19T04:28:19;16.00;99.90
7204;DHT22;3643;52.460;13.322;2023-09-19T04:30:48;16.10;99.90
7204;DHT22;3643;52.460;13.322;2023-09-19T04:33:17;16.00;99.90
7204;DHT22;3643;52.460;13.322;2023-09-19T04:35:45;16.00;99.90
7204;DHT22;3643;52.460;13.322;2023-09-19T04:38:17;16.00;99.90
7204;DHT22;3643;52.460;13.322;2023-09-19T04:40:45;15.90;99.90
7204;DHT22;3643;52.460;13.322;2023-09-19T04:43:14;15.90;99.90
7204;DHT22;3643;52.460;13.322;2023-09-19T04:45:42;15.90;99.90
7204;DHT22;3643;52.460;13.322;2023-09-19T04:48:11;15.90;99.90
7204;DHT22;3643;52.460;13.322;2023-09-19T04:50:41;15.80;99.90
7204;DHT22;3643;52.460;13.322;2023-09-19T04:53:09;15.80;99.90
7204;DHT22;3643;52.460;13.322;2023-09-19T04:55:38;17.30;99.90
7204;DHT22;3643;52.460;13.322;2023-09-19T04:58:06;15.90;99.90
7204;DHT22;3643;52.460;13.322;2023-09-19T05:00:34;15.90;99.90
7204;DHT22;3643;52.460;13.322;2023-09-19T05:03:02;15.90;99.90
7204;DHT22;3643;52.460;13.322;2023-09-19T05:05:34;15.90;99.90
7204;DHT22;3643;52.460;13.322;2023-09-19T05:08:02;15.90;99.90
7204;DHT22;3643;52.460;13.322;2023-09-19T05:10:32;15.90;99.90
7204;DHT22;3643;52.460;13.322;2023-09-19T05:13:00;15.90;99.90
7204;DHT22;3643;52.460;13.322;2023-09-19T05:15:29;15.90;99.90
7204;DHT22;3643;52.460;13.322;2023-09-19T05:17:57;16.00;99.90
7204;DHT22;3643;52.460;13.322;2023-09-19T05:20:26;16.00;99.90
7204;DHT22;3643;52.460;13.322;2023-09-19T05:23:01;16.00;99.90
7204;DHT22;3643;52.460;13.322;2023-09-19T05:25:31;16.00;99.90
7204;DHT22;3643;52.460;13.322;2023-09-19T05:28:01;16.00;99.90
7204;DHT22;3643;52.460;13.322;2023-09-19T05:30:30;16.10;99.90
7204;DHT22;3643;52.460;13.322;2023-09-19T05:32:59;16.10;99.90
7204;DHT22;3643;52.460;13.322;2023-09-19T05:35:30;16.10;99.90
7204;DHT22;3643;52.460;13.322;2023-09-19T05:37:58;16.10;99.90
7204;DHT22;3643;52.460;13.322;2023-09-19T05:40:28;16.10;99.90
7204;DHT22;3643;52.460;13.322;2023-09-19T05:42:56;16.10;99.90
7204;DHT22;3643;52.460;13.322;2023-09-19T05:45:25;16.10;99.90
7204;DHT22;3643;52.460;13.322;2023-09-19T05:47:54;16.20;99.90
7204;DHT22;3643;52.460;13.322;2023-09-19T05:50:28;16.20;99.90
7204;DHT22;3643;52.460;13.322;2023-09-19T05:52:56;16.20;99.90
7204;DHT22;3643;52.460;13.322;2023-09-19T05:55:25;16.30;99.90
7204;DHT22;3643;52.460;13.322;2023-09-19T05:57:54;16.40;99.90
7204;DHT22;3643;52.460;13.322;2023-09-19T06:00:26;16.40;99.90
7204;DHT22;3643;52.460;13.322;2023-09-19T06:02:55;16.60;99.90
7204;DHT22;3643;52.460;13.322;2023-09-19T06:05:25;16.80;99.90
7204;DHT22;3643;52.460;13.322;2023-09-19T06:07:54;17.20;99.90
7204;DHT22;3643;52.460;13.322;2023-09-19T06:10:22;17.50;99.90
7204;DHT22;3643;52.460;13.322;2023-09-19T06:12:52;17.60;99.90
7204;DHT22;3643;52.460;13.322;2023-09-19T06:15:21;17.70;99.90
7204;DHT22;3643;52.460;13.322;2023-09-19T06:17:52;18.10;99.90
7204;DHT22;3643;52.460;13.322;2023-09-19T06:20:22;18.60;99.90
7204;DHT22;3643;52.460;13.322;2023-09-19T06:22:52;18.90;99.90
7204;DHT22;3643;52.460;13.322;2023-09-19T06:25:21;19.00;99.90
7204;DHT22;3643;52.460;13.322;2023-09-19T06:27:51;19.00;99.90
7204;DHT22;3643;52.460;13.322;2023-09-19T06:30:23;19.20;99.90
7204;DHT22;3643;52.460;13.322;2023-09-19T06:32:56;19.20;99.90
7204;DHT22;3643;52.460;13.322;2023-09-19T06:35:25;20.00;99.90
7204;DHT22;3643;52.460;13.322;2023-09-19T06:37:53;20.50;99.90
7204;DHT22;3643;52.460;13.322;2023-09-19T06:40:25;21.70;99.90
7204;DHT22;3643;52.460;13.322;2023-09-19T06:42:55;22.50;99.90
7204;DHT22;3643;52.460;13.322;2023-09-19T06:45:24;23.50;99.90
7204;DHT22;3643;52.460;13.322;2023-09-19T06:47:53;23.70;99.90
7204;DHT22;3643;52.460;13.322;2023-09-19T06:50:25;23.80;99.90
7204;DHT22;3643;52.460;13.322;2023-09-19T06:52:55;22.90;99.90
7204;DHT22;3643;52.460;13.322;2023-09-19T06:55:25;22.40;99.90
7204;DHT22;3643;52.460;13.322;2023-09-19T06:57:55;22.80;99.90
7204;DHT22;3643;52.460;13.322;2023-09-19T07:00:26;22.90;99.90
7204;DHT22;3643;52.460;13.322;2023-09-19T07:02:56;23.30;99.90
7204;DHT22;3643;52.460;13.322;2023-09-19T07:05:26;24.00;99.90
7204;DHT22;3643;52.460;13.322;2023-09-19T07:07:56;25.10;99.90
7204;DHT22;3643;52.460;13.322;2023-09-19T07:10:26;25.80;99.90
7204;DHT22;3643;52.460;13.322;2023-09-19T07:12:56;26.60;99.90
7204;DHT22;3643;52.460;13.322;2023-09-19T07:15:26;26.50;99.90
7204;DHT22;3643;52.460;13.322;2023-09-19T07:17:55;27.30;99.90
7204;DHT22;3643;52.460;13.322;2023-09-19T07:20:24;26.70;99.90
7204;DHT22;3643;52.460;13.322;2023-09-19T07:22:53;27.10;99.90
7204;DHT22;3643;52.460;13.322;2023-09-19T07:25:22;26.10;99.90
7204;DHT22;3643;52.460;13.322;2023-09-19T07:27:51;25.70;99.90
7204;DHT22;3643;52.460;13.322;2023-09-19T07:30:19;25.40;99.90
7204;DHT22;3643;52.460;13.322;2023-09-19T07:32:49;24.20;99.90
7204;DHT22;3643;52.460;13.322;2023-09-19T07:35:20;23.90;99.90
7204;DHT22;3643;52.460;13.322;2023-09-19T07:37:49;23.10;99.90
7204;DHT22;3643;52.460;13.322;2023-09-19T07:40:19;22.70;99.90
7204;DHT22;3643;52.460;13.322;2023-09-19T07:42:47;22.50;99.90
7204;DHT22;3643;52.460;13.322;2023-09-19T07:45:17;22.10;99.90
7204;DHT22;3643;52.460;13.322;2023-09-19T07:47:45;21.70;99.90
7204;DHT22;3643;52.460;13.322;2023-09-19T07:50:15;21.30;99.90
7204;DHT22;3643;52.460;13.322;2023-09-19T07:52:45;21.20;99.90
7204;DHT22;3643;52.460;13.322;2023-09-19T07:55:14;21.00;99.90
7204;DHT22;3643;52.460;13.322;2023-09-19T07:57:44;20.90;99.90
7204;DHT22;3643;52.460;13.322;2023-09-19T08:00:13;21.00;99.90
7204;DHT22;3643;52.460;13.322;2023-09-19T08:02:42;21.30;99.90
7204;DHT22;3643;52.460;13.322;2023-09-19T08:05:13;20.90;99.90
7204;DHT22;3643;52.460;13.322;2023-09-19T08:07:45;20.80;99.90
7204;DHT22;3643;52.460;13.322;2023-09-19T08:10:15;20.60;99.90
7204;DHT22;3643;52.460;13.322;2023-09-19T08:12:47;20.70;99.90
7204;DHT22;3643;52.460;13.322;2023-09-19T08:15:23;20.50;99.90
7204;DHT22;3643;52.460;13.322;2023-09-19T08:17:51;20.50;99.90
7204;DHT22;3643;52.460;13.322;2023-09-19T08:20:20;20.50;99.90
7204;DHT22;3643;52.460;13.322;2023-09-19T08:22:51;20.40;99.90
7204;DHT22;3643;52.460;13.322;2023-09-19T08:25:21;20.30;99.90
7204;DHT22;3643;52.460;13.322;2023-09-19T08:27:50;20.10;99.90
7204;DHT22;3643;52.460;13.322;2023-09-19T08:30:20;19.90;99.90
7204;DHT22;3643;52.460;13.322;2023-09-19T08:32:51;19.90;99.90
7204;DHT22;3643;52.460;13.322;2023-09-19T08:35:25;19.60;99.90
7204;DHT22;3643;52.460;13.322;2023-09-19T08:37:55;19.70;99.90
7204;DHT22;3643;52.460;13.322;2023-09-19T08:40:24;19.80;99.90
7204;DHT22;3643;52.460;13.322;2023-09-19T08:42:57;19.70;99.90
7204;DHT22;3643;52.460;13.322;2023-09-19T08:45:26;19.70;99.90
7204;DHT22;3643;52.460;13.322;2023-09-19T08:48:02;19.50;99.90
7204;DHT22;3643;52.460;13.322;2023-09-19T08:50:39;19.40;99.90
7204;DHT22;3643;52.460;13.322;2023-09-19T08:53:15;19.30;99.90
7204;DHT22;3643;52.460;13.322;2023-09-19T08:55:44;19.30;99.90
7204;DHT22;3643;52.460;13.322;2023-09-19T08:58:17;19.30;99.90
7204;DHT22;3643;52.460;13.322;2023-09-19T09:00:53;19.20;99.90
7204;DHT22;3643;52.460;13.322;2023-09-19T09:03:23;19.20;99.90
7204;DHT22;3643;52.460;13.322;2023-09-19T09:05:51;19.20;99.90
7204;DHT22;3643;52.460;13.322;2023-09-19T09:08:22;19.20;99.90
7204;DHT22;3643;52.460;13.322;2023-09-19T09:10:51;19.20;99.90
7204;DHT22;3643;52.460;13.322;2023-09-19T09:13:19;19.10;99.90
7204;DHT22;3643;52.460;13.322;2023-09-19T09:15:48;19.00;99.90
7204;DHT22;3643;52.460;13.322;2023-09-19T09:18:17;17.80;99.90
7204;DHT22;3643;52.460;13.322;2023-09-19T09:20:45;19.20;99.90
7204;DHT22;3643;52.460;13.322;2023-09-19T09:23:15;19.30;99.90
7204;DHT22;3643;52.460;13.322;2023-09-19T09:25:52;19.60;99.90
7204;DHT22;3643;52.460;13.322;2023-09-19T09:28:24;19.60;99.90
7204;DHT22;3643;52.460;13.322;2023-09-19T09:30:54;19.80;99.90
7204;DHT22;3643;52.460;13.322;2023-09-19T09:33:23;19.90;99.90
7204;DHT22;3643;52.460;13.322;2023-09-19T09:35:53;20.10;99.90
7204;DHT22;3643;52.460;13.322;2023-09-19T09:38:24;20.30;99.90
7204;DHT22;3643;52.460;13.322;2023-09-19T09:40:56;20.30;99.90
7204;DHT22;3643;52.460;13.322;2023-09-19T09:43:34;20.40;99.90
7204;DHT22;3643;52.460;13.322;2023-09-19T09:46:12;20.30;99.90
7204;DHT22;3643;52.460;13.322;2023-09-19T09:48:59;20.40;99.90
7204;DHT22;3643;52.460;13.322;2023-09-19T09:51:48;20.30;99.90
7204;DHT22;3643;52.460;13.322;2023-09-19T09:54:27;20.10;99.90
7204;DHT22;3643;52.460;13.322;2023-09-19T09:57:03;19.80;99.90
7204;DHT22;3643;52.460;13.322;2023-09-19T09:59:49;19.80;99.90
7204;DHT22;3643;52.460;13.322;2023-09-19T10:02:19;19.60;99.90
7204;DHT22;3643;52.460;13.322;2023-09-19T10:04:52;19.30;99.90
7204;DHT22;3643;52.460;13.322;2023-09-19T10:07:30;19.20;99.90
7204;DHT22;3643;52.460;13.322;2023-09-19T10:10:03;19.10;99.90
7204;DHT22;3643;52.460;13.322;2023-09-19T10:12:45;19.20;99.90
7204;DHT22;3643;52.460;13.322;2023-09-19T10:15:17;19.30;99.90
7204;DHT22;3643;52.460;13.322;2023-09-19T10:17:47;19.40;99.90
7204;DHT22;3643;52.460;13.322;2023-09-19T10:20:17;19.50;99.90
7204;DHT22;3643;52.460;13.322;2023-09-19T10:23:06;19.70;99.90
7204;DHT22;3643;52.460;13.322;2023-09-19T10:25:40;19.90;99.90
7204;DHT22;3643;52.460;13.322;2023-09-19T10:28:13;20.10;99.90
7204;DHT22;3643;52.460;13.322;2023-09-19T10:30:42;20.30;99.90
7204;DHT22;3643;52.460;13.322;2023-09-19T10:33:13;20.50;99.90
7204;DHT22;3643;52.460;13.322;2023-09-19T10:35:43;20.70;99.90
7204;DHT22;3643;52.460;13.322;2023-09-19T10:38:13;20.80;99.90
7204;DHT22;3643;52.460;13.322;2023-09-19T10:40:50;20.70;99.90
7204;DHT22;3643;52.460;13.322;2023-09-19T10:43:21;20.80;99.90
7204;DHT22;3643;52.460;13.322;2023-09-19T10:45:54;20.80;99.90
7204;DHT22;3643;52.460;13.322;2023-09-19T10:48:26;20.70;99.90
7204;DHT22;3643;52.460;13.322;2023-09-19T10:51:02;20.70;99.30
7204;DHT22;3643;52.460;13.322;2023-09-19T10:53:45;20.60;99.50
7204;DHT22;3643;52.460;13.322;2023-09-19T10:56:22;20.50;99.70
7204;DHT22;3643;52.460;13.322;2023-09-19T10:59:07;20.30;99.10
7204;DHT22;3643;52.460;13.322;2023-09-19T11:01:42;20.30;99.50
7204;DHT22;3643;52.460;13.322;2023-09-19T11:04:22;20.20;99.90
7204;DHT22;3643;52.460;13.322;2023-09-19T11:07:03;20.30;99.70
7204;DHT22;3643;52.460;13.322;2023-09-19T11:09:48;20.30;99.40
7204;DHT22;3643;52.460;13.322;2023-09-19T11:12:48;20.30;99.50
7204;DHT22;3643;52.460;13.322;2023-09-19T11:18:52;20.20;99.00
7204;DHT22;3643;52.460;13.322;2023-09-19T11:21:51;20.10;99.40
7204;DHT22;3643;52.460;13.322;2023-09-19T11:24:31;20.10;99.20
7204;DHT22;3643;52.460;13.322;2023-09-19T11:27:14;20.20;99.30
7204;DHT22;3643;52.460;13.322;2023-09-19T11:29:45;20.10;99.10
7204;DHT22;3643;52.460;13.322;2023-09-19T11:32:14;20.30;99.40
7204;DHT22;3643;52.460;13.322;2023-09-19T11:34:47;20.30;99.50
7204;DHT22;3643;52.460;13.322;2023-09-19T11:40:35;20.80;99.30
7204;DHT22;3643;52.460;13.322;2023-09-19T11:43:33;20.90;98.60
7204;DHT22;3643;52.460;13.322;2023-09-19T11:46:08;21.00;98.30
7204;DHT22;3643;52.460;13.322;2023-09-19T11:48:41;20.90;97.80
7204;DHT22;3643;52.460;13.322;2023-09-19T11:51:14;20.90;98.20
7204;DHT22;3643;52.460;13.322;2023-09-19T11:53:47;21.00;98.10
7204;DHT22;3643;52.460;13.322;2023-09-19T11:56:17;20.90;98.10
7204;DHT22;3643;52.460;13.322;2023-09-19T11:58:49;21.00;98.20
7204;DHT22;3643;52.460;13.322;2023-09-19T12:01:23;21.20;97.80
7204;DHT22;3643;52.460;13.322;2023-09-19T12:03:54;21.20;97.80
7204;DHT22;3643;52.460;13.322;2023-09-19T12:06:26;21.00;97.90
7204;DHT22;3643;52.460;13.322;2023-09-19T12:08:56;21.20;97.80
7204;DHT22;3643;52.460;13.322;2023-09-19T12:11:29;21.40;98.00
7204;DHT22;3643;52.460;13.322;2023-09-19T12:14:01;21.60;97.90
7204;DHT22;3643;52.460;13.322;2023-09-19T12:16:31;21.70;97.40
7204;DHT22;3643;52.460;13.322;2023-09-19T12:19:19;21.90;97.60
7204;DHT22;3643;52.460;13.322;2023-09-19T12:22:00;21.90;97.20
7204;DHT22;3643;52.460;13.322;2023-09-19T12:24:33;21.90;96.70
7204;DHT22;3643;52.460;13.322;2023-09-19T12:27:03;21.50;96.60
7204;DHT22;3643;52.460;13.322;2023-09-19T12:29:43;21.50;97.00
7204;DHT22;3643;52.460;13.322;2023-09-19T12:32:12;21.60;97.10
7204;DHT22;3643;52.460;13.322;2023-09-19T12:34:51;21.80;97.20
7204;DHT22;3643;52.460;13.322;2023-09-19T12:37:23;21.80;96.70
7204;DHT22;3643;52.460;13.322;2023-09-19T12:40:04;21.60;96.70
7204;DHT22;3643;52.460;13.322;2023-09-19T12:42:43;21.70;96.70
7204;DHT22;3643;52.460;13.322;2023-09-19T12:45:13;21.70;96.90
7204;DHT22;3643;52.460;13.322;2023-09-19T12:51:02;21.70;97.00
7204;DHT22;3643;52.460;13.322;2023-09-19T12:53:36;22.00;96.40
7204;DHT22;3643;52.460;13.322;2023-09-19T12:56:08;22.10;96.60
7204;DHT22;3643;52.460;13.322;2023-09-19T12:58:49;22.10;96.40
7204;DHT22;3643;52.460;13.322;2023-09-19T13:01:17;21.80;96.70
7204;DHT22;3643;52.460;13.322;2023-09-19T13:03:46;21.90;97.10
7204;DHT22;3643;52.460;13.322;2023-09-19T13:06:36;21.90;96.10
7204;DHT22;3643;52.460;13.322;2023-09-19T13:09:11;21.80;96.80
7204;DHT22;3643;52.460;13.322;2023-09-19T13:11:51;21.60;96.60
7204;DHT22;3643;52.460;13.322;2023-09-19T13:14:21;21.60;96.00
7204;DHT22;3643;52.460;13.322;2023-09-19T13:16:58;21.60;96.60
7204;DHT22;3643;52.460;13.322;2023-09-19T13:19:37;21.70;96.40
7204;DHT22;3643;52.460;13.322;2023-09-19T13:22:40;21.50;96.40
7204;DHT22;3643;52.460;13.322;2023-09-19T13:28:37;21.40;96.60
7204;DHT22;3643;52.460;13.322;2023-09-19T13:31:06;21.40;96.80
7204;DHT22;3643;52.460;13.322;2023-09-19T13:33:34;21.40;97.00
7204;DHT22;3643;52.460;13.322;2023-09-19T13:36:03;21.50;97.00
7204;DHT22;3643;52.460;13.322;2023-09-19T13:38:32;21.50;97.00
7204;DHT22;3643;52.460;13.322;2023-09-19T13:41:01;21.40;97.00
7204;DHT22;3643;52.460;13.322;2023-09-19T13:43:29;21.50;96.80
7204;DHT22;3643;52.460;13.322;2023-09-19T13:45:59;21.40;97.00
7204;DHT22;3643;52.460;13.322;2023-09-19T13:48:27;21.50;96.70
7204;DHT22;3643;52.460;13.322;2023-09-19T13:50:56;21.40;96.90
7204;DHT22;3643;52.460;13.322;2023-09-19T13:53:25;21.30;97.20
7204;DHT22;3643;52.460;13.322;2023-09-19T13:55:53;21.40;97.00
7204;DHT22;3643;52.460;13.322;2023-09-19T13:58:21;21.10;96.90
7204;DHT22;3643;52.460;13.322;2023-09-19T14:00:51;21.00;97.00
7204;DHT22;3643;52.460;13.322;2023-09-19T14:03:23;21.30;97.10
7204;DHT22;3643;52.460;13.322;2023-09-19T14:05:51;21.30;96.70
7204;DHT22;3643;52.460;13.322;2023-09-19T14:08:19;21.40;96.80
7204;DHT22;3643;52.460;13.322;2023-09-19T14:10:48;21.50;96.70
7204;DHT22;3643;52.460;13.322;2023-09-19T14:13:17;21.60;96.80
7204;DHT22;3643;52.460;13.322;2023-09-19T14:15:45;21.60;96.50
7204;DHT22;3643;52.460;13.322;2023-09-19T14:18:13;21.60;96.60
7204;DHT22;3643;52.460;13.322;2023-09-19T14:20:43;21.60;96.70
7204;DHT22;3643;52.460;13.322;2023-09-19T14:23:11;21.60;96.80
7204;DHT22;3643;52.460;13.322;2023-09-19T14:25:39;21.50;96.90
7204;DHT22;3643;52.460;13.322;2023-09-19T14:28:08;21.50;96.90
7204;DHT22;3643;52.460;13.322;2023-09-19T14:30:36;21.40;97.00
7204;DHT22;3643;52.460;13.322;2023-09-19T14:33:05;21.20;97.10
7204;DHT22;3643;52.460;13.322;2023-09-19T14:35:37;21.20;97.40
7204;DHT22;3643;52.460;13.322;2023-09-19T14:38:06;21.30;97.00
7204;DHT22;3643;52.460;13.322;2023-09-19T14:40:33;21.10;96.90
7204;DHT22;3643;52.460;13.322;2023-09-19T14:43:03;20.80;96.90
7204;DHT22;3643;52.460;13.322;2023-09-19T14:45:31;20.80;97.20
7204;DHT22;3643;52.460;13.322;2023-09-19T14:47:59;20.70;97.20
7204;DHT22;3643;52.460;13.322;2023-09-19T14:50:29;20.70;97.00
7204;DHT22;3643;52.460;13.322;2023-09-19T14:52:57;20.60;96.70
7204;DHT22;3643;52.460;13.322;2023-09-19T14:55:30;20.70;96.80
7204;DHT22;3643;52.460;13.322;2023-09-19T14:58:01;20.80;96.90
7204;DHT22;3643;52.460;13.322;2023-09-19T15:00:29;20.80;96.90
7204;DHT22;3643;52.460;13.322;2023-09-19T15:02:59;20.90;97.10
7204;DHT22;3643;52.460;13.322;2023-09-19T15:05:28;21.00;97.30
7204;DHT22;3643;52.460;13.322;2023-09-19T15:07:57;21.10;97.30
7204;DHT22;3643;52.460;13.322;2023-09-19T15:10:25;20.90;96.70
7204;DHT22;3643;52.460;13.322;2023-09-19T15:12:54;20.90;96.70
7204;DHT22;3643;52.460;13.322;2023-09-19T15:15:23;20.80;96.70
7204;DHT22;3643;52.460;13.322;2023-09-19T15:17:51;20.70;96.50
7204;DHT22;3643;52.460;13.322;2023-09-19T15:20:19;20.60;96.70
7204;DHT22;3643;52.460;13.322;2023-09-19T15:22:47;20.50;96.70
7204;DHT22;3643;52.460;13.322;2023-09-19T15:25:16;20.40;96.90
7204;DHT22;3643;52.460;13.322;2023-09-19T15:27:44;20.40;97.20
7204;DHT22;3643;52.460;13.322;2023-09-19T15:30:14;20.40;97.00
7204;DHT22;3643;52.460;13.322;2023-09-19T15:32:43;20.40;97.20
7204;DHT22;3643;52.460;13.322;2023-09-19T15:35:11;20.40;97.20
7204;DHT22;3643;52.460;13.322;2023-09-19T15:37:40;20.40;97.40
7204;DHT22;3643;52.460;13.322;2023-09-19T15:40:09;20.40;97.60
7204;DHT22;3643;52.460;13.322;2023-09-19T15:42:40;20.40;97.70
7204;DHT22;3643;52.460;13.322;2023-09-19T15:45:09;20.50;97.80
7204;DHT22;3643;52.460;13.322;2023-09-19T15:47:39;20.40;98.00
7204;DHT22;3643;52.460;13.322;2023-09-19T15:50:08;20.40;97.90
7204;DHT22;3643;52.460;13.322;2023-09-19T15:52:40;20.40;98.00
7204;DHT22;3643;52.460;13.322;2023-09-19T15:55:09;20.30;98.00
7204;DHT22;3643;52.460;13.322;2023-09-19T15:57:38;20.30;98.00
7204;DHT22;3643;52.460;13.322;2023-09-19T16:00:07;20.30;98.20
7204;DHT22;3643;52.460;13.322;2023-09-19T16:02:42;20.30;98.40
7204;DHT22;3643;52.460;13.322;2023-09-19T16:05:10;20.20;98.40
7204;DHT22;3643;52.460;13.322;2023-09-19T16:07:39;20.20;98.30
7204;DHT22;3643;52.460;13.322;2023-09-19T16:10:08;20.10;98.10
7204;DHT22;3643;52.460;13.322;2023-09-19T16:12:36;20.10;98.40
7204;DHT22;3643;52.460;13.322;2023-09-19T16:15:06;20.00;98.40
7204;DHT22;3643;52.460;13.322;2023-09-19T16:17:37;19.90;98.50
7204;DHT22;3643;52.460;13.322;2023-09-19T16:20:08;19.90;98.80
7204;DHT22;3643;52.460;13.322;2023-09-19T16:22:39;19.80;98.60
7204;DHT22;3643;52.460;13.322;2023-09-19T16:25:07;19.70;98.40